Terminal Aerodrome Forecast
Issued by NWS Northern Indiana

Home | Current Version | Previous Version | Graphics & Text | Print | Product List | Glossary On
Versions: 1 2 3 4 5 6 7 8 9 10 11 12 13 14
000
FTUS43 KIWX 302300
TAFFWA
TAF
KFWA 302331Z 3100/3124 27008KT P6SM SCT050
     FM310200 VRB03KT P6SM FEW060
     FM311500 25009KT P6SM SCT050=

USA.gov is the U.S. government's official web portal to all federal, state and local government web resources and services.